Time;durP1;ratioP1;P1;durP2;ratioP2;P2;SDS_P1;SDS_P2;PMS_P1;PMS_P2;Temp;Humidity;BMP_temperature;BMP_pressure;BME280_temperature;BME280_humidity;BME280_pressure;Samples;Min_cycle;Max_cycle;Signal;HPM_P1;HPM_P2
2022/01/04 00:02:12;;;;;;;;;;;;;;;12.73;56.87;99526.34;4413551;32;20000;-78
2022/01/04 00:04:39;;;;;;;;;;;;;;;12.56;57.64;99523.69;4434615;32;20031;-79
2022/01/04 00:07:06;;;;;;;;;;;;;;;12.66;56.98;99539.28;4415439;32;19974;-77
2022/01/04 00:09:41;;;;;;;;;;;;;;;12.63;57.00;99523.69;4439455;32;20383;-78
2022/01/04 00:14:57;;;;;;;;;;;;;;;12.76;57.09;99526.34;4420535;32;20004;-78
2022/01/04 00:17:25;;;;;;;;;;;;;;;12.91;56.75;99525.47;4422707;32;19974;-78
2022/01/04 00:19:52;;;;;;;;;;;;;;;12.78;56.78;99513.34;4429552;32;20043;-78
2022/01/04 00:22:18;;;;;;;;;;;;;;;12.88;56.30;99525.47;4430829;32;20008;-78
2022/01/04 00:24:45;;;;;;;;;;;;;;;12.80;56.57;99522.88;4428379;32;20000;-77
2022/01/04 00:27:12;;;;;;;;;;;;;;;12.83;56.59;99522.03;4416570;32;20004;-79
2022/01/04 00:29:39;;;;;;;;;;;;;;;12.73;57.02;99528.03;4416124;32;19989;-78
2022/01/04 00:32:06;;;;;;;;;;;;;;;12.64;56.89;99515.94;4415414;32;20402;-78
2022/01/04 00:34:33;;;;;;;;;;;;;;;12.72;57.04;99511.59;4414179;32;20049;-79
2022/01/04 00:36:59;;;;;;;;;;;;;;;12.75;56.91;99513.34;4415269;32;19982;-77
2022/01/04 00:39:26;;;;;;;;;;;;;;;12.79;56.42;99530.66;4415305;32;20335;-78
2022/01/04 00:41:53;;;;;;;;;;;;;;;12.68;56.50;99516.78;4415429;32;20045;-78
2022/01/04 00:44:20;;;;;;;;;;;;;;;12.52;56.88;99516.75;4415330;32;20000;-78
2022/01/04 00:46:47;;;;;;;;;;;;;;;12.60;56.78;99515.91;4415373;32;19974;-78
2022/01/04 00:49:17;;;;;;;;;;;;;;;12.69;56.50;99508.13;4415203;32;19978;-78
2022/01/04 00:51:45;;;;;;;;;;;;;;;12.68;56.64;99519.41;4413573;32;19986;-78
2022/01/04 00:54:13;;;;;;;;;;;;;;;12.57;57.11;99509.84;4419162;32;19992;-79
2022/01/04 00:56:40;;;;;;;;;;;;;;;12.65;56.92;99507.25;4417110;32;20528;-78
2022/01/04 00:59:07;;;;;;;;;;;;;;;12.69;56.64;99508.13;4417084;32;19982;-77
2022/01/04 01:01:34;;;;;;;;;;;;;;;12.49;56.45;99495.97;4440898;32;20000;-78
2022/01/04 01:04:02;;;;;;;;;;;;;;;12.54;56.53;99507.25;4417112;32;20021;-79
2022/01/04 01:06:29;;;;;;;;;;;;;;;12.28;57.28;99501.09;4440710;32;20390;-78
2022/01/04 01:08:56;;;;;;;;;;;;;;;12.55;56.63;99511.56;4416617;32;19993;-78
2022/01/04 01:11:22;;;;;;;;;;;;;;;12.62;56.37;99506.37;4412197;32;19990;-78
2022/01/04 01:13:49;;;;;;;;;;;;;;;12.60;56.46;99498.59;4417336;32;19989;-78
2022/01/04 01:16:16;;;;;;;;;;;;;;;12.71;56.24;99490.84;4416839;32;20308;-78
2022/01/04 01:18:43;;;;;;;;;;;;;;;12.48;56.95;99489.06;4418586;32;20369;-77
2022/01/04 01:21:10;;;;;;;;;;;;;;;12.41;57.34;99492.50;4416331;32;20794;-79
2022/01/04 01:23:37;;;;;;;;;;;;;;;12.46;57.24;99495.97;4418251;32;20079;-78
2022/01/04 01:26:04;;;;;;;;;;;;;;;12.61;56.57;99473.50;4414070;32;19970;-77
2022/01/04 01:28:31;;;;;;;;;;;;;;;12.57;56.50;99478.69;4419230;32;19973;-78
2022/01/04 01:31:02;;;;;;;;;;;;;;;12.30;57.30;99483.81;4416737;32;19982;-78
2022/01/04 01:33:29;;;;;;;;;;;;;;;12.29;57.82;99492.47;4440482;32;19978;-78
2022/01/04 01:35:56;;;;;;;;;;;;;;;12.32;57.74;99482.09;4442636;32;20018;-77
2022/01/04 01:38:23;;;;;;;;;;;;;;;12.42;57.59;99467.41;4416391;32;20036;-78
2022/01/04 01:40:51;;;;;;;;;;;;;;;12.31;57.62;99469.94;4442819;32;20348;-79
2022/01/04 01:43:18;;;;;;;;;;;;;;;12.37;57.08;99487.28;4417035;32;19985;-78
2022/01/04 01:45:45;;;;;;;;;;;;;;;12.20;57.67;99476.84;4416846;32;20308;-79
2022/01/04 01:48:12;;;;;;;;;;;;;;;12.44;56.51;99466.53;4411823;32;20041;-79
2022/01/04 01:50:39;;;;;;;;;;;;;;;12.34;56.74;99454.38;4422234;32;19998;-78
2022/01/04 01:53:06;;;;;;;;;;;;;;;12.43;56.43;99446.63;4415614;32;20015;-78
2022/01/04 01:55:33;;;;;;;;;;;;;;;12.35;56.92;99443.16;4418346;32;19982;-78
2022/01/04 01:58:00;;;;;;;;;;;;;;;12.20;57.37;99433.59;4416934;32;19971;-78
2022/01/04 02:00:28;;;;;;;;;;;;;;;12.36;56.75;99431.06;4416748;32;19982;-77
2022/01/04 02:02:57;;;;;;;;;;;;;;;12.29;56.69;99420.66;4416508;32;20076;-78
2022/01/04 02:05:25;;;;;;;;;;;;;;;12.32;56.44;99396.44;4416105;32;19970;-78
2022/01/04 02:07:52;;;;;;;;;;;;;;;12.19;56.58;99376.50;4414283;32;20028;-78
2022/01/04 02:10:19;;;;;;;;;;;;;;;12.31;56.02;99376.53;4420294;32;20774;-77
2022/01/04 02:12:47;;;;;;;;;;;;;;;11.99;56.90;99359.16;4416487;32;19992;-78
2022/01/04 02:15:15;;;;;;;;;;;;;;;12.29;55.91;99357.50;4416045;32;20020;-78
2022/01/04 02:17:42;;;;;;;;;;;;;;;12.23;56.06;99357.50;4418198;32;19981;-79
2022/01/04 02:20:09;;;;;;;;;;;;;;;12.06;56.65;99371.31;4440570;32;19994;-79
2022/01/04 02:22:37;;;;;;;;;;;;;;;11.99;56.58;99353.97;4415866;32;20043;-79
2022/01/04 02:25:05;;;;;;;;;;;;;;;11.87;57.11;99348.78;4439238;32;20037;-78
2022/01/04 02:27:33;;;;;;;;;;;;;;;12.05;56.52;99346.19;4417604;32;20306;-78
2022/01/04 02:30:00;;;;;;;;;;;;;;;12.13;56.46;99347.97;4412446;32;19982;-78
2022/01/04 02:32:27;;;;;;;;;;;;;;;12.18;56.45;99346.22;4446260;32;20079;-78
2022/01/04 02:34:53;;;;;;;;;;;;;;;12.18;56.66;99347.09;4415947;32;19982;-78
2022/01/04 02:37:21;;;;;;;;;;;;;;;12.22;56.43;99346.25;4416358;32;19993;-78
2022/01/04 02:39:48;;;;;;;;;;;;;;;12.36;56.04;99354.06;4440127;32;19985;-77
2022/01/04 02:42:15;;;;;;;;;;;;;;;12.31;56.28;99356.62;4440202;32;20350;-79
2022/01/04 02:44:42;;;;;;;;;;;;;;;12.24;56.37;99360.09;4440100;32;19985;-79
2022/01/04 02:47:09;;;;;;;;;;;;;;;12.23;56.41;99362.69;4416908;32;19989;-79
2022/01/04 02:49:36;;;;;;;;;;;;;;;12.30;56.50;99369.63;4417433;32;20029;-78
2022/01/04 02:52:03;;;;;;;;;;;;;;;12.18;56.80;99369.59;4416239;32;20001;-78
2022/01/04 02:54:30;;;;;;;;;;;;;;;12.26;56.64;99357.50;4415981;32;20027;-78
2022/01/04 02:56:58;;;;;;;;;;;;;;;12.31;56.28;99360.94;4415983;32;19977;-77
2022/01/04 02:59:24;;;;;;;;;;;;;;;12.31;56.42;99360.94;4414753;32;20320;-78
2022/01/04 03:01:51;;;;;;;;;;;;;;;12.21;56.96;99359.22;4419066;32;20022;-79
2022/01/04 03:04:20;;;;;;;;;;;;;;;12.17;56.88;99357.47;4414707;32;19978;-79
2022/01/04 03:06:46;;;;;;;;;;;;;;;12.15;56.92;99359.19;4419180;32;20029;-79
2022/01/04 03:09:13;;;;;;;;;;;;;;;12.16;56.79;99355.75;4416274;32;19974;-79
2022/01/04 03:11:40;;;;;;;;;;;;;;;12.24;56.73;99343.66;4440056;32;20011;-79
2022/01/04 03:14:07;;;;;;;;;;;;;;;12.18;56.86;99338.44;4415537;32;19994;-77
2022/01/04 03:16:35;;;;;;;;;;;;;;;12.24;56.64;99328.06;4420354;32;19987;-79
2022/01/04 03:19:03;;;;;;;;;;;;;;;12.15;56.82;99323.75;4416286;32;20303;-79
2022/01/04 03:21:30;;;;;;;;;;;;;;;12.23;56.43;99326.38;4411122;32;19986;-79
2022/01/04 03:23:57;;;;;;;;;;;;;;;12.05;56.93;99328.03;4422670;32;19970;-78
2022/01/04 03:26:25;;;;;;;;;;;;;;;12.26;56.02;99322.03;4411668;32;19997;-79
2022/01/04 03:28:51;;;;;;;;;;;;;;;12.23;55.63;99321.16;4421339;32;19982;-79
2022/01/04 03:31:18;;;;;;;;;;;;;;;12.14;55.93;99314.22;4415815;32;19974;-78
2022/01/04 03:33:45;;;;;;;;;;;;;;;12.21;55.51;99303.00;4439945;32;20698;-78
2022/01/04 03:36:12;;;;;;;;;;;;;;;12.19;55.20;99309.03;4414608;32;20394;-78
2022/01/04 03:38:39;;;;;;;;;;;;;;;12.03;55.70;99298.66;4418569;32;19986;-79
2022/01/04 03:41:08;;;;;;;;;;;;;;;11.97;55.63;99296.06;4417705;32;20335;-79
2022/01/04 03:43:37;;;;;;;;;;;;;;;11.94;55.57;99290.88;4416055;32;19986;-77
2022/01/04 03:46:05;;;;;;;;;;;;;;;11.85;56.00;99283.06;4420150;32;19993;-77
2022/01/04 03:48:32;;;;;;;;;;;;;;;11.78;55.80;99292.53;4413479;32;20307;-77
2022/01/04 03:50:59;;;;;;;;;;;;;;;11.81;55.30;99296.88;4420291;32;20027;-79
2022/01/04 03:53:26;;;;;;;;;;;;;;;11.84;55.29;99296.88;4439781;32;20021;-77
2022/01/04 03:55:53;;;;;;;;;;;;;;;11.67;55.36;99299.41;4415818;32;20364;-77
2022/01/04 03:58:20;;;;;;;;;;;;;;;11.63;55.70;99288.16;4415941;32;19996;-78
2022/01/04 04:00:46;;;;;;;;;;;;;;;11.69;55.15;99283.87;4416206;32;19986;-78
2022/01/04 04:03:14;;;;;;;;;;;;;;;11.53;55.98;99265.66;4439440;32;20346;-78
2022/01/04 04:05:41;;;;;;;;;;;;;;;11.53;55.89;99268.25;4416240;32;19986;-77
2022/01/04 04:08:08;;;;;;;;;;;;;;;11.61;55.11;99263.97;4415541;32;20032;-78
2022/01/04 04:10:35;;;;;;;;;;;;;;;11.48;55.10;99262.19;4413213;32;19996;-79
2022/01/04 04:13:02;;;;;;;;;;;;;;;11.39;55.60;99262.16;4416654;32;20354;-79
2022/01/04 04:15:29;;;;;;;;;;;;;;;11.27;55.42;99269.91;4415450;32;20493;-78
2022/01/04 04:17:56;;;;;;;;;;;;;;;11.31;55.74;99271.63;4415862;32;19985;-78
2022/01/04 04:20:23;;;;;;;;;;;;;;;11.21;56.16;99262.97;4412644;32;19986;-78
2022/01/04 04:22:50;;;;;;;;;;;;;;;11.37;55.22;99269.06;4420951;32;19996;-78
2022/01/04 04:25:17;;;;;;;;;;;;;;;11.25;55.90;99253.47;4438697;32;19981;-78
2022/01/04 04:27:43;;;;;;;;;;;;;;;11.36;55.54;99257.00;4442008;32;19994;-78
2022/01/04 04:30:11;;;;;;;;;;;;;;;11.28;55.93;99258.69;4413292;32;19981;-77
2022/01/04 04:32:38;;;;;;;;;;;;;;;11.11;56.63;99256.88;4430671;32;19965;-79
2022/01/04 04:35:05;;;;;;;;;;;;;;;11.31;56.26;99248.31;4430757;32;20023;-79
2022/01/04 04:37:31;;;;;;;;;;;;;;;11.28;56.47;99249.16;4430498;32;19989;-77
2022/01/04 04:39:58;;;;;;;;;;;;;;;11.27;56.61;99256.94;4430679;32;20327;-78
2022/01/04 04:42:25;;;;;;;;;;;;;;;11.22;57.04;99249.16;4430424;32;20031;-78
2022/01/04 04:44:52;;;;;;;;;;;;;;;11.33;56.53;99241.44;4423651;32;20521;-78
2022/01/04 04:47:19;;;;;;;;;;;;;;;11.30;56.53;99242.28;4419815;32;19989;-79
2022/01/04 04:49:46;;;;;;;;;;;;;;;11.27;56.40;99246.59;4415072;32;20347;-79
2022/01/04 04:52:14;;;;;;;;;;;;;;;11.14;56.88;99246.53;4416964;32;20019;-79
2022/01/04 04:54:41;;;;;;;;;;;;;;;11.26;56.56;99230.16;4414009;32;19973;-77
2022/01/04 04:57:08;;;;;;;;;;;;;;;11.27;56.27;99231.91;4415386;32;20299;-77
2022/01/04 04:59:34;;;;;;;;;;;;;;;11.30;55.94;99223.28;4414997;32;19993;-78
2022/01/04 05:02:03;;;;;;;;;;;;;;;11.19;56.14;99220.62;4414625;32;19970;-78
2022/01/04 05:04:30;;;;;;;;;;;;;;;11.25;54.98;99220.66;4414969;32;20016;-77
2022/01/04 05:06:57;;;;;;;;;;;;;;;11.16;54.81;99218.03;4413097;32;21075;-76
2022/01/04 05:09:24;;;;;;;;;;;;;;;11.39;53.76;99210.31;4418518;32;19974;-75
2022/01/04 05:11:51;;;;;;;;;;;;;;;11.21;54.54;99210.28;4414680;32;20290;-77
2022/01/04 05:14:18;;;;;;;;;;;;;;;11.11;53.79;99222.34;4410872;32;19990;-77
2022/01/04 05:16:45;;;;;;;;;;;;;;;11.06;54.01;99222.31;4444478;32;20047;-79
2022/01/04 05:19:12;;;;;;;;;;;;;;;11.02;54.11;99228.34;4411279;32;19978;-79
2022/01/04 05:21:39;;;;;;;;;;;;;;;11.00;53.78;99227.47;4420145;32;19994;-79
2022/01/04 05:24:06;;;;;;;;;;;;;;;10.90;53.92;99217.94;4414743;32;19974;-78
2022/01/04 05:26:33;;;;;;;;;;;;;;;10.91;53.93;99222.25;4438562;32;20037;-78
2022/01/04 05:29:00;;;;;;;;;;;;;;;10.74;54.29;99227.34;4405924;32;20005;-78
2022/01/04 05:31:29;;;;;;;;;;;;;;;10.80;54.01;99218.75;4405501;32;20002;-75
2022/01/04 05:33:56;;;;;;;;;;;;;;;10.54;54.72;99198.75;4410505;32;19977;-78
2022/01/04 05:36:23;;;;;;;;;;;;;;;10.53;54.65;99197.03;4405596;32;19994;-79
2022/01/04 05:38:52;;;;;;;;;;;;;;;10.42;55.32;99194.38;4409835;32;20000;-81
2022/01/04 05:41:19;;;;;;;;;;;;;;;10.40;55.23;99197.81;4416385;32;19977;-82
2022/01/04 05:43:47;;;;;;;;;;;;;;;10.38;55.21;99189.19;4406279;32;19997;-81
2022/01/04 05:46:15;;;;;;;;;;;;;;;10.43;54.85;99178.00;4401964;32;19990;-81
2022/01/04 05:48:42;;;;;;;;;;;;;;;10.39;55.15;99171.06;4419470;32;20049;-82
2022/01/04 05:51:09;;;;;;;;;;;;;;;10.27;55.32;99167.53;4413628;32;20019;-81
2022/01/04 05:53:36;;;;;;;;;;;;;;;10.30;55.00;99163.25;4414313;32;19996;-80
2022/01/04 05:56:03;;;;;;;;;;;;;;;10.28;55.10;99164.13;4413351;32;20059;-82
2022/01/04 05:58:30;;;;;;;;;;;;;;;10.10;55.72;99165.69;4412133;32;20013;-83
2022/01/04 06:00:57;;;;;;;;;;;;;;;10.19;55.18;99163.16;4418877;32;19985;-81
2022/01/04 06:03:24;;;;;;;;;;;;;;;10.15;55.21;99161.41;4415888;32;19971;-81
2022/01/04 06:05:52;;;;;;;;;;;;;;;10.18;54.78;99160.56;4438455;32;20003;-77
2022/01/04 06:08:20;;;;;;;;;;;;;;;10.10;55.24;99168.25;4413006;32;20252;-81
2022/01/04 06:10:51;;;;;;;;;;;;;;;10.16;54.91;99157.97;4422033;32;19987;-82
2022/01/04 06:16:04;;;;;;;;;;;;;;;9.88;56.07;99156.91;4437841;32;19977;-82
2022/01/04 06:18:31;;;;;;;;;;;;;;;9.85;56.10;99156.88;4415316;32;20050;-84
2022/01/04 06:20:57;;;;;;;;;;;;;;;9.93;55.86;99156.94;4416028;32;19981;-85
2022/01/04 06:23:24;;;;;;;;;;;;;;;9.94;55.80;99151.78;4415849;32;19986;-86
2022/01/04 06:25:52;;;;;;;;;;;;;;;10.00;55.64;99150.97;4437001;32;20036;-81
2022/01/04 06:28:19;;;;;;;;;;;;;;;9.87;55.70;99154.31;4443874;32;20299;-82
2022/01/04 06:30:48;;;;;;;;;;;;;;;10.07;55.32;99152.72;4440173;32;19977;-81
2022/01/04 06:33:18;;;;;;;;;;;;;;;9.98;55.48;99147.50;4423221;32;20032;-86
2022/01/04 06:35:46;;;;;;;;;;;;;;;9.98;56.32;99147.50;4432006;32;19985;-86
2022/01/04 06:38:13;;;;;;;;;;;;;;;9.88;56.34;99145.69;4423608;32;19989;-81
2022/01/04 06:40:40;;;;;;;;;;;;;;;10.10;55.03;99139.81;4412851;32;19970;-85
2022/01/04 06:43:06;;;;;;;;;;;;;;;10.01;55.71;99129.41;4419930;32;19985;-82
2022/01/04 06:45:33;;;;;;;;;;;;;;;10.00;55.56;99130.28;4435455;32;20028;-84
2022/01/04 06:48:00;;;;;;;;;;;;;;;9.99;56.08;99132.00;4422354;32;20884;-84
2022/01/04 06:50:27;;;;;;;;;;;;;;;9.99;55.29;99118.22;4420814;32;19992;-86
2022/01/04 06:52:54;;;;;;;;;;;;;;;10.07;54.76;99119.13;4439215;32;19982;-89
2022/01/04 06:55:21;;;;;;;;;;;;;;;10.01;55.07;99116.47;4415987;32;19994;-87
2022/01/04 06:57:48;;;;;;;;;;;;;;;9.88;56.16;99125.88;4439965;32;20452;-87
2022/01/04 07:00:15;;;;;;;;;;;;;;;10.05;55.75;99113.09;4415496;32;19997;-83
2022/01/04 07:02:42;;;;;;;;;;;;;;;10.25;55.26;99106.28;4439211;32;20052;-79
2022/01/04 07:05:09;;;;;;;;;;;;;;;10.34;54.86;99109.81;4420800;32;20001;-85
2022/01/04 07:07:36;;;;;;;;;;;;;;;10.41;55.17;99111.59;4414203;32;19994;-82
2022/01/04 07:10:03;;;;;;;;;;;;;;;10.46;55.37;99109.87;4440101;32;20023;-85
2022/01/04 07:12:29;;;;;;;;;;;;;;;10.53;55.27;99110.75;4413065;32;19986;-84
2022/01/04 07:14:56;;;;;;;;;;;;;;;10.64;55.89;99122.91;4420260;32;20491;-84
2022/01/04 07:17:23;;;;;;;;;;;;;;;10.69;56.52;99134.16;4415740;32;20319;-84
2022/01/04 07:19:50;;;;;;;;;;;;;;;10.96;55.91;99134.25;4415912;32;20023;-83
2022/01/04 07:22:17;;;;;;;;;;;;;;;10.77;56.21;99135.91;4416585;32;19996;-82
2022/01/04 07:24:44;;;;;;;;;;;;;;;10.95;55.82;99141.16;4415853;32;20011;-84
2022/01/04 07:27:10;;;;;;;;;;;;;;;11.12;55.77;99136.88;4416170;32;20035;-82
2022/01/04 07:29:37;;;;;;;;;;;;;;;11.10;56.01;99141.19;4417623;32;19982;-86
2022/01/04 07:32:04;;;;;;;;;;;;;;;11.22;56.02;99134.31;4415215;32;19998;-85
2022/01/04 07:34:31;;;;;;;;;;;;;;;11.20;56.16;99136.91;4417449;32;20024;-85
2022/01/04 07:36:59;;;;;;;;;;;;;;;11.17;56.10;99137.75;4394301;32;19996;-86
2022/01/04 07:39:26;;;;;;;;;;;;;;;11.32;56.01;99120.50;4415034;32;19982;-86
2022/01/04 07:41:55;;;;;;;;;;;;;;;11.21;56.66;99122.22;4410806;32;20355;-84
2022/01/04 07:44:22;;;;;;;;;;;;;;;11.17;57.24;99123.94;4419574;32;20048;-88
2022/01/04 07:46:49;;;;;;;;;;;;;;;11.21;57.41;99117.03;4415467;32;20444;-90
2022/01/04 07:49:17;;;;;;;;;;;;;;;11.34;56.93;99118.78;4414717;32;20032;-85
2022/01/04 07:51:45;;;;;;;;;;;;;;;11.39;57.00;99112.75;4414217;32;20006;-87
2022/01/04 07:54:12;;;;;;;;;;;;;;;11.42;57.34;99111.88;4420693;32;20347;-85
2022/01/04 07:56:38;;;;;;;;;;;;;;;11.43;57.58;99103.25;4439144;32;19985;-88
2022/01/04 07:59:05;;;;;;;;;;;;;;;11.66;57.29;99095.47;4415399;32;20314;-89
2022/01/04 08:01:32;;;;;;;;;;;;;;;11.76;56.81;99093.72;4415145;32;20411;-88
2022/01/04 08:04:04;;;;;;;;;;;;;;;11.84;56.77;99087.72;4414832;32;19997;-83
2022/01/04 08:06:31;;;;;;;;;;;;;;;11.94;56.79;99091.16;4413603;32;20004;-89
2022/01/04 08:08:58;;;;;;;;;;;;;;;12.06;56.44;99096.34;4414619;32;19991;-85
2022/01/04 08:11:28;;;;;;;;;;;;;;;12.27;56.36;99081.56;4400052;32;20000;-87
2022/01/04 08:13:54;;;;;;;;;;;;;;;12.45;55.82;99083.25;4399962;32;20545;-87
2022/01/04 08:16:21;;;;;;;;;;;;;;;12.62;54.99;99073.63;4412065;32;19981;-82
2022/01/04 08:18:48;;;;;;;;;;;;;;;12.70;55.64;99065.81;4416812;32;19974;-75
2022/01/04 08:21:32;;;;;;;;;;;;;;;12.86;54.42;99062.28;4415035;32;20259;-79
2022/01/04 08:23:59;;;;;;;;;;;;;;;13.11;55.16;99054.31;4439623;32;20280;-84
2022/01/04 08:26:26;;;;;;;;;;;;;;;13.24;54.15;99050.75;4410935;32;19982;-87
2022/01/04 08:28:55;;;;;;;;;;;;;;;13.47;53.30;99037.62;4417049;32;20342;-87
2022/01/04 08:31:26;;;;;;;;;;;;;;;13.39;52.96;99042.88;4400313;32;802851;-81
2022/01/04 08:33:53;;;;;;;;;;;;;;;13.45;53.01;99035.03;4415802;32;19983;-76
2022/01/04 08:36:20;;;;;;;;;;;;;;;13.40;53.51;99029.03;4417102;32;19985;-84
2022/01/04 08:38:47;;;;;;;;;;;;;;;13.59;52.38;99039.22;4419973;32;20009;-88
2022/01/04 08:41:14;;;;;;;;;;;;;;;12.99;53.32;99045.75;4414158;32;19986;-77
2022/01/04 08:43:41;;;;;;;;;;;;;;;12.94;54.22;99050.09;4415997;32;20010;-82
2022/01/04 08:46:08;;;;;;;;;;;;;;;13.01;53.56;99048.31;4414090;32;19985;-86
2022/01/04 08:48:35;;;;;;;;;;;;;;;12.38;55.21;99046.06;4417220;32;19973;-82
2022/01/04 08:51:01;;;;;;;;;;;;;;;12.61;54.98;99043.38;4409231;32;20744;-79
2022/01/04 08:53:29;;;;;;;;;;;;;;;12.37;55.70;99039.13;4420419;32;19982;-81
2022/01/04 08:56:01;;;;;;;;;;;;;;;11.95;56.02;99033.22;4414298;32;20051;-82
2022/01/04 08:58:28;;;;;;;;;;;;;;;12.24;56.48;99042.66;4414331;32;20023;-87
2022/01/04 09:00:56;;;;;;;;;;;;;;;12.55;55.40;99028.69;4413702;32;19997;-81
2022/01/04 09:03:24;;;;;;;;;;;;;;;12.38;55.69;99024.41;4415069;32;20029;-80
2022/01/04 09:05:51;;;;;;;;;;;;;;;12.05;56.54;99010.72;4415270;32;19990;-75
2022/01/04 09:08:18;;;;;;;;;;;;;;;12.20;55.90;99009.81;4419545;32;19969;-80
2022/01/04 09:10:45;;;;;;;;;;;;;;;12.13;56.44;99028.88;4416700;32;19977;-86
2022/01/04 09:13:18;;;;;;;;;;;;;;;11.96;56.94;99032.34;4414932;32;19978;-81
2022/01/04 09:18:42;;;;;;;;;;;;;;;12.26;56.15;99014.97;4403928;32;20742;-78
2022/01/04 09:18:50;;;;;;;;;;;;;;;12.45;55.79;99014.03;4395601;32;19982;-76
2022/01/04 09:21:23;;;;;;;;;;;;;;;11.97;56.78;98999.53;4400320;32;19978;-77
2022/01/04 09:23:51;;;;;;;;;;;;;;;11.92;57.26;98986.56;4399924;32;20028;-82
2022/01/04 09:26:18;;;;;;;;;;;;;;;12.19;56.25;98987.31;4396492;32;20034;-76
2022/01/04 09:28:45;;;;;;;;;;;;;;;12.47;55.73;98988.91;4399740;32;20006;-84
2022/01/04 09:31:12;;;;;;;;;;;;;;;12.51;55.98;98985.44;4403473;32;20519;-86
2022/01/04 09:33:39;;;;;;;;;;;;;;;12.46;56.12;98984.59;4400727;32;20362;-85
2022/01/04 09:36:33;;;;;;;;;;;;;;;12.65;55.87;98982.75;4421605;32;19973;-78
2022/01/04 09:39:00;;;;;;;;;;;;;;;12.55;55.33;98963.78;4403907;32;19986;-80
2022/01/04 09:41:28;;;;;;;;;;;;;;;12.91;54.16;98955.75;4425446;32;20020;-81
2022/01/04 09:43:55;;;;;;;;;;;;;;;12.37;56.32;98950.91;4401145;32;19979;-87
2022/01/04 09:46:21;;;;;;;;;;;;;;;12.41;56.51;98955.22;4397727;32;19990;-85
2022/01/04 09:48:49;;;;;;;;;;;;;;;12.80;55.30;98961.03;4400686;32;19994;-83
2022/01/04 09:51:16;;;;;;;;;;;;;;;12.52;56.95;98950.81;4395719;32;19990;-89
2022/01/04 09:53:43;;;;;;;;;;;;;;;12.95;55.41;98932.31;4396269;32;20002;-84
2022/01/04 09:56:10;;;;;;;;;;;;;;;12.76;55.37;98923.84;4397902;32;19978;-79
2022/01/04 09:58:37;;;;;;;;;;;;;;;12.61;55.81;98910.09;4396553;32;19979;-87
2022/01/04 10:01:04;;;;;;;;;;;;;;;12.77;56.21;98909.13;4392040;32;19991;-77
2022/01/04 10:03:31;;;;;;;;;;;;;;;12.91;56.33;98896.84;4396677;32;19979;-87
2022/01/04 10:06:00;;;;;;;;;;;;;;;13.19;55.88;98896.63;4390902;32;20443;-87
2022/01/04 10:08:26;;;;;;;;;;;;;;;13.19;55.34;98891.41;4394766;32;19975;-81
2022/01/04 10:11:04;;;;;;;;;;;;;;;13.06;55.80;98895.03;4399420;32;20237;-83
2022/01/04 10:13:31;;;;;;;;;;;;;;;13.03;55.89;98891.56;4397910;32;19994;-86
2022/01/04 10:15:59;;;;;;;;;;;;;;;13.36;55.17;98879.13;4398686;32;19990;-82
2022/01/04 10:18:28;;;;;;;;;;;;;;;13.45;54.92;98868.62;4388205;32;20009;-84
2022/01/04 10:20:58;;;;;;;;;;;;;;;13.15;55.65;98858.56;4395324;32;19979;-88
2022/01/04 10:23:26;;;;;;;;;;;;;;;12.60;57.64;98869.41;4395982;32;20005;-84
2022/01/04 10:25:57;;;;;;;;;;;;;;;13.33;55.58;98868.78;4393630;32;20051;-88
2022/01/04 10:28:27;;;;;;;;;;;;;;;13.20;56.03;98867.16;4409616;32;20028;-88
2022/01/04 10:30:54;;;;;;;;;;;;;;;13.45;55.42;98858.25;4415039;32;19974;-88
2022/01/04 10:33:21;;;;;;;;;;;;;;;13.12;56.50;98856.84;4407131;32;19994;-85
2022/01/04 10:35:49;;;;;;;;;;;;;;;13.25;56.29;98855.00;4412036;32;19994;-80
2022/01/04 10:38:26;;;;;;;;;;;;;;;13.36;56.76;98850.53;4410750;32;19996;-86
2022/01/04 10:41:01;;;;;;;;;;;;;;;13.46;55.94;98843.50;4404525;32;19997;-86
2022/01/04 10:43:29;;;;;;;;;;;;;;;13.36;57.27;98852.28;4387081;32;19995;-79
2022/01/04 10:45:56;;;;;;;;;;;;;;;13.71;55.85;98844.06;4418870;32;20028;-80
2022/01/04 10:48:24;;;;;;;;;;;;;;;13.53;56.29;98849.47;4423823;32;19999;-77
2022/01/04 10:50:52;;;;;;;;;;;;;;;13.55;56.24;98852.94;4436380;32;19977;-83
2022/01/04 10:53:19;;;;;;;;;;;;;;;13.65;56.09;98854.53;4444864;32;19989;-77
2022/01/04 10:55:50;;;;;;;;;;;;;;;13.49;56.15;98841.72;4446963;32;20041;-85
2022/01/04 10:58:19;;;;;;;;;;;;;;;13.23;58.03;98835.94;4445168;32;19969;-87
2022/01/04 11:00:52;;;;;;;;;;;;;;;13.40;57.23;98828.84;4444548;32;20005;-78
2022/01/04 11:03:23;;;;;;;;;;;;;;;12.84;58.63;98827.66;4422676;32;19982;-84
2022/01/04 11:05:55;;;;;;;;;;;;;;;13.25;57.73;98813.44;4416185;32;19989;-88
2022/01/04 11:08:22;;;;;;;;;;;;;;;13.70;56.82;98813.75;4418623;32;19992;-83
2022/01/04 11:10:50;;;;;;;;;;;;;;;13.74;56.08;98802.41;4437891;32;19989;-89
2022/01/04 11:13:16;;;;;;;;;;;;;;;13.95;56.01;98809.94;4429714;32;19977;-89
2022/01/04 11:15:43;;;;;;;;;;;;;;;13.63;57.35;98799.13;4430005;32;20029;-88
2022/01/04 11:18:17;;;;;;;;;;;;;;;13.88;56.34;98791.81;4436617;32;19964;-89
2022/01/04 11:20:44;;;;;;;;;;;;;;;13.74;56.94;98784.22;4404108;32;20001;-89
2022/01/04 11:23:12;;;;;;;;;;;;;;;14.02;55.93;98778.62;4435742;32;19993;-85
2022/01/04 11:25:38;;;;;;;;;;;;;;;14.14;55.59;98781.03;4430338;32;20004;-89
2022/01/04 11:28:07;;;;;;;;;;;;;;;13.47;57.62;98775.91;4420793;32;19974;-80
2022/01/04 11:30:34;;;;;;;;;;;;;;;13.53;57.54;98772.38;4414435;32;19990;-86
2022/01/04 11:33:07;;;;;;;;;;;;;;;13.49;57.25;98771.53;4414981;32;20055;-85
2022/01/04 11:35:34;;;;;;;;;;;;;;;13.65;57.16;98779.97;4420299;32;19989;-87
2022/01/04 11:38:01;;;;;;;;;;;;;;;13.24;58.16;98780.47;4430450;32;19969;-87
2022/01/04 11:40:31;;;;;;;;;;;;;;;12.97;59.14;98776.47;4430688;32;19977;-85
2022/01/04 11:42:58;;;;;;;;;;;;;;;13.33;58.25;98754.41;4431108;32;19995;-83
2022/01/04 11:45:41;;;;;;;;;;;;;;;13.57;57.23;98739.38;4429918;32;20028;-86
2022/01/04 11:48:28;;;;;;;;;;;;;;;14.17;55.36;98734.16;4431543;32;20444;-89
2022/01/04 11:50:55;;;;;;;;;;;;;;;13.75;56.82;98752.09;4425988;32;20239;-89
2022/01/04 11:53:24;;;;;;;;;;;;;;;13.24;58.44;98759.69;4421200;32;20434;-79
2022/01/04 11:56:00;;;;;;;;;;;;;;;13.08;58.98;98737.38;4417646;32;19991;-86
2022/01/04 11:58:41;;;;;;;;;;;;;;;12.74;60.22;98724.78;4422779;32;20358;-84
2022/01/04 12:01:08;;;;;;;;;;;;;;;12.34;61.25;98718.22;4424395;32;20011;-85
2022/01/04 12:03:37;;;;;;;;;;;;;;;12.16;62.33;98738.31;4445345;32;20016;-87
2022/01/04 12:06:05;;;;;;;;;;;;;;;12.41;61.44;98736.31;4439393;32;20051;-89
2022/01/04 12:08:34;;;;;;;;;;;;;;;12.75;60.73;98729.06;4437671;32;19970;-82
2022/01/04 12:11:01;;;;;;;;;;;;;;;13.11;59.71;98730.38;4429432;32;19986;-85
2022/01/04 12:13:47;;;;;;;;;;;;;;;12.43;61.67;98722.47;4427286;32;19995;-88
2022/01/04 12:16:14;;;;;;;;;;;;;;;12.72;61.18;98723.91;4430465;32;20298;-88
2022/01/04 12:18:41;;;;;;;;;;;;;;;13.36;59.03;98712.78;4430833;32;19965;-87
2022/01/04 12:21:20;;;;;;;;;;;;;;;13.16;59.35;98719.94;4428497;32;19993;-86
2022/01/04 12:23:49;;;;;;;;;;;;;;;13.22;59.54;98725.06;4431712;32;19989;-89
2022/01/04 12:26:15;;;;;;;;;;;;;;;12.88;60.38;98720.28;4426158;32;19990;-80
2022/01/04 12:28:46;;;;;;;;;;;;;;;12.72;61.09;98713.53;4434184;32;20015;-86
2022/01/04 12:31:15;;;;;;;;;;;;;;;12.68;61.49;98711.84;4432641;32;20364;-81
2022/01/04 12:33:46;;;;;;;;;;;;;;;13.22;59.73;98705.16;4425633;32;19985;-88
2022/01/04 12:36:22;;;;;;;;;;;;;;;12.98;60.56;98711.50;4429886;32;19999;-88
2022/01/04 12:38:50;;;;;;;;;;;;;;;13.21;59.59;98708.62;4430189;32;20307;-86
2022/01/04 12:41:17;;;;;;;;;;;;;;;13.07;60.13;98699.28;4431883;32;20430;-86
2022/01/04 12:43:47;;;;;;;;;;;;;;;12.88;60.96;98683.91;4413467;32;20006;-83
2022/01/04 12:46:15;;;;;;;;;;;;;;;12.81;60.83;98671.88;4413328;32;20323;-89
2022/01/04 12:48:46;;;;;;;;;;;;;;;12.89;60.55;98684.75;4392874;32;19982;-81
2022/01/04 12:51:24;;;;;;;;;;;;;;;12.85;60.27;98676.16;4386553;32;20806;-85
2022/01/04 12:53:53;;;;;;;;;;;;;;;12.98;60.27;98675.13;4405333;32;19978;-80
2022/01/04 12:56:19;;;;;;;;;;;;;;;12.77;60.75;98675.41;4402086;32;20700;-78
2022/01/04 12:58:46;;;;;;;;;;;;;;;13.22;59.44;98666.16;4400596;32;19978;-78